ZHM weather

Shamshernagar Airport
Shamshernagar, Sylhet Division, Bangladesh

Public forecast

Using degrees Celsius for public forecast. Weather courtesy of forecast.io.

Closest aviation weather report (METAR) to Shamshernagar Airport

Report is more than 6 hours old.

Closest report is Agartala Airport, 47.5 nm (87.9 km) SW. Retrieved 2020/02/18 13:30 UTC (8 hours ago):

VEAT 181330Z 00000KT 2500 BR FEW020 22/19 Q1014 NOSIG

Closest aviation forecast (TAF) to Shamshernagar Airport

Forecast is more than 12 hours old.

Closest forecast is Agartala Airport, 47.5 nm (87.9 km) SW. Retrieved 2013/07/19 12:00 UTC (7 years ago):

TAF VEAT 190900Z 1912/1921 16008KT 5000 HZ SCT018 FEW030CB BKN100 TEMPO 1912/1921 3000 -TSRA SCT015 FEW025CB OVC090